Winona, KS (67764)

3:27 AM CDT on August 31, 2016 (GMT -0500)
Triple T Farms | | Change Station
Active Advisory: Special Statement

Elev 3422 ft 39.27 °N, 101.32 °W | Updated 20 seconds ago

Overcast
Overcast
63.3 °F
Feels Like 63.3 °F
N
2.9
Wind Variable Wind from SSE
Gusts 6.0 mph

Today
High -- | Low -- °F
--% Chance of Precip.
Yesterday
High -- | Low -- °F
Precip. -- in
Pressure 30.25 in
Visibility 4.0 miles
Clouds Overcast 300 ft
Dew Point 62 °F
Humidity 97%
Rainfall 0.00 in
Snow Depth Not available.
7:13 AM 8:16 PM
Waning Crescent, 1% visible
METAR KCBK 310815Z AUTO 14003KT 4SM BR OVC003 18/18 A3025 RMK AO2
Pressure 30.25 in
Visibility 4.0 miles
Clouds Overcast 300 ft
Dew Point 62 °F
Humidity 97%
Rainfall 0.00 in
Snow Depth Not available.
7:13 AM 8:16 PM
Waning Crescent, 1% visible
METAR KCBK 310815Z AUTO 14003KT 4SM BR OVC003 18/18 A3025 RMK AO2

10-Day Weather Forecast

Almanac

Astronomy

Aug. 31, 2016 Rise Set
Actual Time
Civil Twilight
Nautical Twilight
Astronomical Twilight
Moon
Length of Visible Light
Length of Day
Tomorrow will be .
, % of the Moon is Illuminated

Today's Extremes

State Highs State Lows

Community

WunderPhotos

Upload Photos

1,936,052 photos uploaded!

WunderBlog® & News

Nearby

Air Quality

  Air Quality AQ Index Pollutant
Not available.

Snow Depth

Station Depth Elevation

Earthquake Activity

City Distance Mag. Time & Date
Minimum magnitude displayed is 2.5.

Coastal Water Temperatures

Place Temperature

Stations

Nearby Weather Stations

Station Location Temp. Windchill Dew Point Humidity Wind Precip. Elev Updated Type
                   

Watches & Warnings

Special Statement
Issued: 3:15 AM CDT Aug. 31, 2016 – National Weather Service

Patchy dense fog has developed in the area.

At 3am CDT... the Airport at Oakley reported quarter mile
visibility in dense fog.

Motorists along Interstate 70 between Grainfield and Colby can
expect to encounter areas of dense fog and reduced visibility
through the remainder of the overnight hours.



315 am CDT Wed Aug 31 2016

Patchy dense fog has developed in the area.

At 3am CDT... the Airport at Oakley reported quarter mile
visibility in dense fog.

Motorists along Interstate 70 between Grainfield and Colby can
expect to encounter areas of dense fog and reduced visibility
through the remainder of the overnight hours.